Time;durP1;ratioP1;P1;durP2;ratioP2;P2;SDS_P1;SDS_P2;PMS_P1;PMS_P2;Temp;Humidity;BMP_temperature;BMP_pressure;BME280_temperature;BME280_humidity;BME280_pressure;Samples;Min_cycle;Max_cycle;Signal;HPM_P1;HPM_P2
2023/05/16 00:00:52;;;;;;;9.57;6.55;;;10.80;99.90;;;;;;7325096;32;20194;-55
2023/05/16 00:04:53;;;;;;;9.15;6.35;;;10.60;99.90;;;;;;7319633;32;20217;-54
2023/05/16 00:08:55;;;;;;;10.43;6.03;;;10.50;99.90;;;;;;7322110;32;20613;-55
2023/05/16 00:12:57;;;;;;;8.95;6.18;;;10.40;99.90;;;;;;7302139;32;20103;-55
2023/05/16 00:16:59;;;;;;;8.88;4.82;;;10.40;99.90;;;;;;7310415;32;20172;-55
2023/05/16 00:21:04;;;;;;;8.15;4.55;;;10.30;99.90;;;;;;7312153;32;20103;-55
2023/05/16 00:25:10;;;;;;;6.30;4.40;;;10.20;99.90;;;;;;7315577;32;20295;-55
2023/05/16 00:29:11;;;;;;;6.95;4.62;;;10.20;99.90;;;;;;7300964;32;20870;-57
2023/05/16 00:33:13;;;;;;;8.57;5.72;;;10.20;99.90;;;;;;7297119;32;20568;-55
2023/05/16 00:37:15;;;;;;;9.50;7.22;;;10.20;99.90;;;;;;7318271;32;20604;-55
2023/05/16 00:41:17;;;;;;;9.18;7.18;;;10.30;99.90;;;;;;7313012;32;20119;-55
2023/05/16 00:45:19;;;;;;;7.55;6.00;;;10.20;99.90;;;;;;7322993;32;20286;-56
2023/05/16 00:49:21;;;;;;;7.82;5.75;;;10.00;99.90;;;;;;7326672;32;20285;-55
2023/05/16 00:53:24;;;;;;;9.13;4.60;;;10.00;99.90;;;;;;7333463;32;20273;-55
2023/05/16 00:57:26;;;;;;;6.32;3.53;;;9.90;99.90;;;;;;7304220;32;20175;-55
2023/05/16 01:01:28;;;;;;;11.15;3.70;;;9.80;99.90;;;;;;7317585;32;20253;-57
2023/05/16 01:05:30;;;;;;;7.43;3.37;;;9.80;99.90;;;;;;7333227;32;20549;-55
2023/05/16 01:09:32;;;;;;;7.68;3.80;;;9.70;99.90;;;;;;7314795;32;20283;-55
2023/05/16 01:13:55;;;;;;;7.55;3.00;;;9.70;99.90;;;;;;7312230;32;20158;-55
2023/05/16 01:18:15;;;;;;;6.72;3.20;;;9.70;99.90;;;;;;7313771;32;20103;-55
2023/05/16 01:22:26;;;;;;;9.05;3.50;;;9.60;99.90;;;;;;7328833;32;20142;-55
2023/05/16 01:26:29;;;;;;;3.20;2.33;;;9.60;99.90;;;;;;7329473;32;20115;-58
2023/05/16 01:30:36;;;;;;;8.82;2.67;;;9.50;99.90;;;;;;7314058;32;20217;-55
2023/05/16 01:34:37;;;;;;;8.20;2.75;;;9.40;99.90;;;;;;7308318;32;20099;-55
2023/05/16 01:39:01;;;;;;;6.18;2.53;;;9.40;99.90;;;;;;7308359;32;20567;-55
2023/05/16 01:43:10;;;;;;;9.02;3.00;;;9.30;99.90;;;;;;7328197;32;20192;-55
2023/05/16 01:47:15;;;;;;;9.93;2.87;;;9.30;99.90;;;;;;7314288;32;20143;-55
2023/05/16 01:51:21;;;;;;;11.63;2.60;;;9.20;99.90;;;;;;7312935;32;20175;-55
2023/05/16 01:55:51;;;;;;;6.30;2.50;;;9.20;99.90;;;;;;7311370;32;20107;-55
2023/05/16 01:59:53;;;;;;;9.27;3.05;;;9.20;99.90;;;;;;7333250;32;20099;-55
2023/05/16 02:03:56;;;;;;;13.65;2.72;;;9.20;99.90;;;;;;7298174;32;20512;-55
2023/05/16 02:07:59;;;;;;;13.62;3.50;;;9.10;99.90;;;;;;7318258;32;20129;-57
2023/05/16 02:12:01;;;;;;;11.90;2.92;;;9.10;99.90;;;;;;7307690;32;20614;-55
2023/05/16 02:16:03;;;;;;;14.07;2.92;;;9.00;99.90;;;;;;7310586;32;20123;-55
2023/05/16 02:20:06;;;;;;;8.20;3.10;;;9.00;99.90;;;;;;7300040;32;20208;-55
2023/05/16 02:24:07;;;;;;;12.40;3.45;;;9.10;99.90;;;;;;7312577;32;20141;-55
2023/05/16 02:28:09;;;;;;;13.70;2.78;;;9.00;99.90;;;;;;7314712;32;20190;-55
2023/05/16 02:32:11;;;;;;;14.82;3.17;;;8.90;99.90;;;;;;7303860;32;20662;-55
2023/05/16 02:36:13;;;;;;;12.43;2.90;;;8.90;99.90;;;;;;7311430;32;20107;-55
2023/05/16 02:40:15;;;;;;;15.52;3.30;;;8.90;99.90;;;;;;7327825;32;20718;-55
2023/05/16 02:44:16;;;;;;;18.45;3.85;;;8.90;99.90;;;;;;7321337;32;20165;-55
2023/05/16 02:48:18;;;;;;;15.65;3.15;;;8.90;99.90;;;;;;7310344;32;20164;-56
2023/05/16 02:52:20;;;;;;;16.70;3.45;;;9.00;99.90;;;;;;7310676;32;20091;-55
2023/05/16 02:56:22;;;;;;;13.68;3.62;;;8.90;99.90;;;;;;7311479;32;20207;-55
2023/05/16 03:00:24;;;;;;;14.87;3.30;;;8.80;99.90;;;;;;7317502;32;20123;-56
2023/05/16 03:04:26;;;;;;;21.65;3.70;;;8.80;99.90;;;;;;7325529;32;20427;-55
2023/05/16 03:08:28;;;;;;;14.52;3.55;;;8.80;99.90;;;;;;7299960;32;20233;-55
2023/05/16 03:12:30;;;;;;;19.92;3.30;;;8.80;99.90;;;;;;7329572;32;20472;-54
2023/05/16 03:16:31;;;;;;;13.48;3.03;;;8.70;99.90;;;;;;7301855;32;20221;-55
2023/05/16 03:20:33;;;;;;;16.52;3.15;;;8.70;99.90;;;;;;7331072;32;20181;-55
2023/05/16 03:24:35;;;;;;;18.00;3.53;;;8.60;99.90;;;;;;7319481;32;20203;-55
2023/05/16 03:28:37;;;;;;;20.08;3.83;;;8.60;99.90;;;;;;7317707;32;20139;-55
2023/05/16 03:32:38;;;;;;;12.98;3.53;;;8.60;99.90;;;;;;7304509;32;20124;-55
2023/05/16 03:36:40;;;;;;;19.70;3.95;;;8.50;99.90;;;;;;7314057;32;20103;-55
2023/05/16 03:40:42;;;;;;;14.77;4.35;;;8.50;99.90;;;;;;7314546;32;20373;-55
2023/05/16 03:44:44;;;;;;;16.90;3.62;;;8.50;99.90;;;;;;7328076;32;20096;-56
2023/05/16 03:48:46;;;;;;;19.10;3.28;;;8.40;99.90;;;;;;7319315;32;20424;-55
2023/05/16 03:52:48;;;;;;;13.35;2.70;;;8.40;99.90;;;;;;7313467;32;20135;-56
2023/05/16 03:56:50;;;;;;;14.32;3.25;;;8.20;99.90;;;;;;7317230;32;20573;-55
2023/05/16 04:00:51;;;;;;;15.23;2.85;;;8.20;99.90;;;;;;7330423;32;20189;-55
2023/05/16 04:04:54;;;;;;;13.95;2.30;;;8.20;99.90;;;;;;7314020;32;20233;-55
2023/05/16 04:08:55;;;;;;;17.73;2.33;;;8.00;99.90;;;;;;7318877;32;20618;-55
2023/05/16 04:12:57;;;;;;;19.20;3.12;;;7.90;99.90;;;;;;7312400;32;20433;-55
2023/05/16 04:16:59;;;;;;;16.33;2.62;;;7.80;99.90;;;;;;7309404;32;20356;-55
2023/05/16 04:21:01;;;;;;;19.73;2.83;;;7.80;99.90;;;;;;7334904;32;20254;-55
2023/05/16 04:25:03;;;;;;;25.80;2.78;;;7.80;99.90;;;;;;7316073;32;20099;-56
2023/05/16 04:29:05;;;;;;;19.42;2.55;;;7.70;99.90;;;;;;7303093;32;20104;-55
2023/05/16 04:33:07;;;;;;;11.88;2.30;;;7.70;99.90;;;;;;7326194;32;20104;-56
2023/05/16 04:37:09;;;;;;;17.70;2.72;;;7.70;99.90;;;;;;7313185;32;20501;-56
2023/05/16 04:41:10;;;;;;;20.02;2.85;;;7.70;99.90;;;;;;7302199;32;20171;-56
2023/05/16 04:45:13;;;;;;;16.20;2.50;;;7.90;99.90;;;;;;7291220;32;20106;-56
2023/05/16 04:49:15;;;;;;;16.75;2.45;;;8.00;99.90;;;;;;7314059;32;20477;-57
2023/05/16 04:53:17;;;;;;;12.57;2.22;;;8.30;99.90;;;;;;7325866;32;20104;-58
2023/05/16 04:57:18;;;;;;;11.88;2.05;;;8.50;99.90;;;;;;7324066;32;20234;-58
2023/05/16 05:01:20;;;;;;;16.25;2.97;;;8.90;99.90;;;;;;7325654;32;20212;-58
2023/05/16 05:05:22;;;;;;;16.48;2.92;;;9.30;99.90;;;;;;7331164;32;20445;-59
2023/05/16 05:09:24;;;;;;;16.05;2.53;;;9.50;99.90;;;;;;7326091;32;20814;-57
2023/05/16 05:13:26;;;;;;;9.52;2.20;;;9.60;99.90;;;;;;7325257;32;20921;-59
2023/05/16 05:17:28;;;;;;;16.02;2.15;;;9.90;99.90;;;;;;7326951;32;20214;-59
2023/05/16 05:21:31;;;;;;;12.77;2.00;;;9.70;99.90;;;;;;7327287;32;20574;-57
2023/05/16 05:25:35;;;;;;;16.15;2.22;;;9.30;99.90;;;;;;7326871;32;20310;-57
2023/05/16 05:29:39;;;;;;;13.35;2.12;;;9.00;99.90;;;;;;7312514;32;20096;-58
2023/05/16 05:33:41;;;;;;;13.88;2.08;;;9.00;99.90;;;;;;7321370;32;20225;-57
2023/05/16 05:37:43;;;;;;;16.83;2.12;;;8.80;99.90;;;;;;7327529;32;20474;-57
2023/05/16 05:41:45;;;;;;;14.63;2.42;;;8.80;99.90;;;;;;7329938;32;20471;-57
2023/05/16 05:45:46;;;;;;;11.77;2.53;;;8.50;99.90;;;;;;7327013;32;20642;-56
2023/05/16 05:49:49;;;;;;;14.55;2.30;;;8.50;99.90;;;;;;7329475;32;21304;-57
2023/05/16 05:53:51;;;;;;;14.32;2.33;;;8.60;99.90;;;;;;7325266;32;20288;-58
2023/05/16 05:57:53;;;;;;;13.43;2.03;;;8.60;99.90;;;;;;7308783;32;20218;-57
2023/05/16 06:01:55;;;;;;;13.88;2.33;;;8.70;99.90;;;;;;7333170;32;20099;-57
2023/05/16 06:05:57;;;;;;;15.02;2.40;;;8.80;99.90;;;;;;7323859;32;20126;-57
2023/05/16 06:10:03;;;;;;;18.48;2.08;;;8.90;99.90;;;;;;7326512;32;20282;-58
2023/05/16 06:14:06;;;;;;;11.60;1.90;;;9.00;99.90;;;;;;7323768;32;20117;-58
2023/05/16 06:18:08;;;;;;;13.57;2.08;;;9.10;99.90;;;;;;7329071;32;20187;-58
2023/05/16 06:22:10;;;;;;;8.73;1.85;;;9.50;99.90;;;;;;7302105;32;20123;-57
2023/05/16 06:26:11;;;;;;;10.98;2.10;;;10.00;99.90;;;;;;7328195;32;20225;-57
2023/05/16 06:30:13;;;;;;;11.40;2.03;;;10.80;99.90;;;;;;7330400;32;20308;-57
2023/05/16 06:34:15;;;;;;;9.70;1.50;;;11.50;99.90;;;;;;7309878;32;20111;-58
2023/05/16 06:38:18;;;;;;;10.15;1.65;;;12.40;99.90;;;;;;7314377;32;20148;-58
2023/05/16 06:42:20;;;;;;;11.73;1.85;;;12.80;99.90;;;;;;7318588;32;20190;-58
2023/05/16 06:46:22;;;;;;;13.68;2.05;;;13.50;99.90;;;;;;7328101;32;20835;-58
2023/05/16 06:50:24;;;;;;;9.10;1.85;;;13.70;99.90;;;;;;7330861;32;20480;-58
2023/05/16 06:54:25;;;;;;;10.85;2.05;;;13.10;99.90;;;;;;7329258;32;20505;-58
2023/05/16 06:58:27;;;;;;;13.65;1.90;;;12.00;99.90;;;;;;7315676;32;20095;-57
2023/05/16 07:02:29;;;;;;;9.45;1.58;;;11.40;99.90;;;;;;7331351;32;20126;-58
2023/05/16 07:06:31;;;;;;;12.40;1.73;;;11.00;99.90;;;;;;7329985;32;20226;-57
2023/05/16 07:10:33;;;;;;;11.77;1.55;;;10.80;99.90;;;;;;7334945;32;20126;-58
2023/05/16 07:14:35;;;;;;;13.20;1.40;;;10.50;99.90;;;;;;7334353;32;20544;-57
2023/05/16 07:18:36;;;;;;;8.18;1.45;;;10.40;99.90;;;;;;7331273;32;20218;-57
2023/05/16 07:22:39;;;;;;;8.02;1.50;;;10.70;99.90;;;;;;7313443;32;20222;-58
2023/05/16 07:26:41;;;;;;;12.27;1.50;;;11.10;99.90;;;;;;7326841;32;20190;-57
2023/05/16 07:30:43;;;;;;;14.30;2.10;;;11.40;99.90;;;;;;7331078;32;20107;-57
2023/05/16 07:34:45;;;;;;;7.95;1.15;;;12.00;99.90;;;;;;7333773;32;20247;-58
2023/05/16 07:38:47;;;;;;;7.30;1.02;;;12.30;99.90;;;;;;7299491;32;20104;-57
2023/05/16 07:42:49;;;;;;;11.55;1.58;;;12.50;99.90;;;;;;7331149;32;20099;-57
2023/05/16 07:46:51;;;;;;;7.85;1.35;;;12.50;99.90;;;;;;7330329;32;20111;-57
2023/05/16 07:50:53;;;;;;;8.75;1.65;;;12.30;99.90;;;;;;7330376;32;20585;-57
2023/05/16 07:54:57;;;;;;;6.35;1.10;;;12.00;99.90;;;;;;7333409;32;20157;-57
2023/05/16 07:58:59;;;;;;;6.40;1.25;;;11.70;99.90;;;;;;7325741;32;20377;-58
2023/05/16 08:03:01;;;;;;;10.85;1.25;;;11.50;99.90;;;;;;7318891;32;20115;-57
2023/05/16 08:07:03;;;;;;;10.73;1.30;;;11.50;99.90;;;;;;7335339;32;20469;-57
2023/05/16 08:11:04;;;;;;;5.15;0.93;;;11.70;99.90;;;;;;7328502;32;20149;-57
2023/05/16 08:15:07;;;;;;;6.95;1.10;;;12.00;99.90;;;;;;7330862;32;20122;-57
2023/05/16 08:19:09;;;;;;;10.35;1.58;;;12.10;99.90;;;;;;7322493;32;20521;-58
2023/05/16 08:23:10;;;;;;;5.43;1.00;;;12.30;99.90;;;;;;7323149;32;20153;-58
2023/05/16 08:27:12;;;;;;;5.47;0.93;;;12.80;99.90;;;;;;7327640;32;20186;-57
2023/05/16 08:31:14;;;;;;;8.25;1.15;;;13.90;99.90;;;;;;7322222;32;20220;-57
2023/05/16 08:35:16;;;;;;;7.22;1.02;;;14.40;99.90;;;;;;7323063;32;20110;-57
2023/05/16 08:39:18;;;;;;;6.72;1.37;;;15.40;99.90;;;;;;7324186;32;20309;-58
2023/05/16 08:43:19;;;;;;;10.48;1.70;;;14.50;99.90;;;;;;7325862;32;20251;-58
2023/05/16 08:47:25;;;;;;;8.52;1.40;;;14.80;99.90;;;;;;7305792;32;20189;-57
2023/05/16 08:51:34;;;;;;;7.75;1.37;;;14.80;99.90;;;;;;7324252;32;20257;-58
2023/05/16 08:55:38;;;;;;;6.18;1.17;;;15.20;99.90;;;;;;7326999;32;20632;-57
2023/05/16 08:59:40;;;;;;;7.78;1.90;;;15.40;99.90;;;;;;7322084;32;20159;-58
2023/05/16 09:03:42;;;;;;;11.63;1.42;;;15.50;99.90;;;;;;7324095;32;20253;-58
2023/05/16 09:07:45;;;;;;;10.40;1.70;;;14.80;99.90;;;;;;7299743;32;20522;-57
2023/05/16 09:11:47;;;;;;;9.30;1.65;;;14.00;99.90;;;;;;7316005;32;20229;-57
2023/05/16 09:16:10;;;;;;;9.43;1.20;;;13.40;99.90;;;;;;7325990;32;20229;-58
2023/05/16 09:20:17;;;;;;;6.03;1.10;;;13.20;99.90;;;;;;7325938;32;20127;-58
2023/05/16 09:24:24;;;;;;;6.15;0.88;;;14.80;99.90;;;;;;7330732;32;20735;-57
2023/05/16 09:28:27;;;;;;;4.47;1.10;;;15.00;99.90;;;;;;7317067;32;20122;-57
2023/05/16 09:32:30;;;;;;;7.07;1.02;;;14.60;99.90;;;;;;7325534;32;20145;-58
2023/05/16 09:36:32;;;;;;;7.28;1.15;;;14.30;99.90;;;;;;7310694;32;20245;-57
2023/05/16 09:40:40;;;;;;;7.37;1.25;;;14.40;99.90;;;;;;7322760;32;20755;-57
2023/05/16 09:44:47;;;;;;;8.10;1.40;;;14.50;99.90;;;;;;7320652;32;20403;-58
2023/05/16 09:48:50;;;;;;;6.97;1.40;;;14.40;99.90;;;;;;7327201;32;20106;-58
2023/05/16 09:52:53;;;;;;;7.85;1.62;;;14.70;99.90;;;;;;7310184;32;20194;-57
2023/05/16 09:56:54;;;;;;;6.55;0.90;;;15.00;99.90;;;;;;7322290;32;20270;-58
2023/05/16 10:00:57;;;;;;;5.15;0.98;;;14.70;99.90;;;;;;7327673;32;20487;-57
2023/05/16 10:04:58;;;;;;;4.28;1.15;;;14.40;99.90;;;;;;7312967;32;20102;-58
2023/05/16 10:09:01;;;;;;;7.62;0.93;;;14.30;99.90;;;;;;7323460;32;20218;-57
2023/05/16 10:13:07;;;;;;;7.80;1.17;;;13.80;99.90;;;;;;7326217;32;20508;-58
2023/05/16 10:17:13;;;;;;;6.47;1.00;;;13.80;99.90;;;;;;7320144;32;20383;-58
2023/05/16 10:21:16;;;;;;;4.53;0.80;;;13.60;99.90;;;;;;7312266;32;20178;-57
2023/05/16 10:25:47;;;;;;;8.90;1.15;;;13.50;99.90;;;;;;7319179;32;20134;-59
2023/05/16 10:29:50;;;;;;;7.95;1.30;;;14.30;99.90;;;;;;7321666;32;20317;-57
2023/05/16 10:33:56;;;;;;;7.17;1.20;;;14.90;99.90;;;;;;7326419;32;20123;-57
2023/05/16 10:37:59;;;;;;;7.00;1.30;;;15.50;99.90;;;;;;7321028;32;20127;-59
2023/05/16 10:42:02;;;;;;;5.57;1.20;;;15.50;99.90;;;;;;7312837;32;20650;-57
2023/05/16 10:46:12;;;;;;;8.27;1.45;;;15.30;99.90;;;;;;7317824;32;20107;-57
2023/05/16 10:50:36;;;;;;;9.75;1.30;;;14.70;99.90;;;;;;7320348;32;20279;-57
2023/05/16 10:54:40;;;;;;;6.10;1.52;;;14.20;99.90;;;;;;7320362;32;20614;-62
2023/05/16 10:58:43;;;;;;;10.15;2.08;;;13.90;99.90;;;;;;7324965;32;20112;-60
2023/05/16 11:02:45;;;;;;;11.12;1.65;;;13.80;99.90;;;;;;7325369;32;20246;-62
2023/05/16 11:06:52;;;;;;;7.95;1.30;;;13.70;99.90;;;;;;7307892;32;20126;-60
2023/05/16 11:11:32;;;;;;;4.87;1.17;;;14.10;99.90;;;;;;7322762;32;20688;-60
2023/05/16 11:15:34;;;;;;;8.40;1.40;;;15.00;99.90;;;;;;7321583;32;20325;-60
2023/05/16 11:19:57;;;;;;;5.00;1.00;;;15.20;99.90;;;;;;7322076;32;20569;-61
2023/05/16 11:24:28;;;;;;;7.82;1.30;;;15.10;99.90;;;;;;7323892;32;20123;-61
2023/05/16 11:28:31;;;;;;;3.42;0.90;;;15.50;99.90;;;;;;7310269;32;20605;-59
2023/05/16 11:32:35;;;;;;;5.15;0.93;;;15.70;99.90;;;;;;7326911;32;20221;-58
2023/05/16 11:36:39;;;;;;;3.40;1.10;;;16.10;99.90;;;;;;7311428;32;20204;-57
2023/05/16 11:40:48;;;;;;;3.87;0.95;;;16.20;99.90;;;;;;7328639;32;20505;-57
2023/05/16 11:44:49;;;;;;;3.12;0.60;;;16.50;97.90;;;;;;7332125;32;20095;-57
2023/05/16 11:48:51;;;;;;;2.55;0.68;;;16.20;98.80;;;;;;7332480;32;20107;-58
2023/05/16 11:52:56;;;;;;;3.03;0.80;;;16.20;98.70;;;;;;7326548;32;20262;-57
2023/05/16 11:56:58;;;;;;;3.65;0.70;;;15.50;98.70;;;;;;7331924;32;20159;-59
2023/05/16 12:01:03;;;;;;;3.65;0.90;;;14.90;99.90;;;;;;7324364;32;20260;-57
2023/05/16 12:05:07;;;;;;;4.95;0.80;;;14.00;99.90;;;;;;7326024;32;20120;-57
2023/05/16 12:09:13;;;;;;;3.83;0.70;;;13.90;99.90;;;;;;7322570;32;20157;-57
2023/05/16 12:13:21;;;;;;;3.97;0.80;;;13.60;99.90;;;;;;7327266;32;20186;-57
2023/05/16 12:17:23;;;;;;;4.25;1.00;;;13.10;99.90;;;;;;7326791;32;20734;-57
2023/05/16 12:21:25;;;;;;;5.20;0.73;;;13.60;99.90;;;;;;7322560;32;20103;-57
2023/05/16 12:25:31;;;;;;;4.72;0.60;;;15.00;99.90;;;;;;7326645;32;20180;-57
2023/05/16 12:29:33;;;;;;;1.83;0.50;;;16.70;99.90;;;;;;7324916;32;20190;-59
2023/05/16 12:33:36;;;;;;;2.67;0.70;;;17.60;99.90;;;;;;7325895;32;20111;-58
2023/05/16 12:37:38;;;;;;;2.47;0.98;;;18.30;99.90;;;;;;7317529;32;20113;-59
2023/05/16 12:41:42;;;;;;;3.12;0.90;;;18.70;97.20;;;;;;7332608;32;20099;-58
2023/05/16 12:45:51;;;;;;;2.83;0.80;;;19.10;95.40;;;;;;7318529;32;20198;-58
2023/05/16 12:49:54;;;;;;;3.80;0.70;;;19.20;93.80;;;;;;7323533;32;20135;-59
2023/05/16 12:53:56;;;;;;;1.83;0.50;;;19.10;90.00;;;;;;7326717;32;20194;-58
2023/05/16 12:58:11;;;;;;;3.92;0.50;;;18.60;91.60;;;;;;7322685;32;21172;-57
2023/05/16 13:02:13;;;;;;;3.75;0.50;;;18.10;78.60;;;;;;7333234;32;20973;-58
2023/05/16 13:06:14;;;;;;;1.92;0.50;;;18.00;81.50;;;;;;7318661;32;20590;-58
2023/05/16 13:10:17;;;;;;;3.17;0.60;;;17.10;81.80;;;;;;7317976;32;20178;-58
2023/05/16 13:14:19;;;;;;;3.62;0.70;;;17.40;84.60;;;;;;7325956;32;21214;-58
2023/05/16 13:18:20;;;;;;;4.90;0.90;;;17.80;89.40;;;;;;7320147;32;20178;-58
2023/05/16 13:22:22;;;;;;;3.17;0.60;;;17.50;82.70;;;;;;7324956;32;20239;-58
2023/05/16 13:26:24;;;;;;;2.75;0.70;;;17.40;87.40;;;;;;7325789;32;20090;-58
2023/05/16 13:30:26;;;;;;;2.47;0.40;;;17.90;87.00;;;;;;7339437;32;20528;-58
2023/05/16 13:34:28;;;;;;;5.72;1.00;;;18.00;84.00;;;;;;7344279;32;20104;-58
2023/05/16 13:38:30;;;;;;;4.97;0.82;;;18.00;83.60;;;;;;7337427;32;20164;-58
2023/05/16 13:42:31;;;;;;;3.15;0.85;;;18.10;85.20;;;;;;7320947;32;20271;-58
2023/05/16 13:46:33;;;;;;;3.72;0.75;;;17.60;81.80;;;;;;7321060;32;20255;-58
2023/05/16 13:50:36;;;;;;;4.95;0.80;;;16.60;84.00;;;;;;7326305;32;20209;-58
2023/05/16 13:54:44;;;;;;;3.78;1.00;;;17.00;87.00;;;;;;7323968;32;20201;-58
2023/05/16 13:58:45;;;;;;;3.70;0.85;;;16.80;88.70;;;;;;7325929;32;20334;-58
2023/05/16 14:02:53;;;;;;;6.00;0.82;;;16.00;86.40;;;;;;7329142;32;20187;-57
2023/05/16 14:06:55;;;;;;;2.78;0.85;;;15.60;90.00;;;;;;7326347;32;20187;-57
2023/05/16 14:10:57;;;;;;;1.85;0.60;;;15.10;91.20;;;;;;7322127;32;20191;-58
2023/05/16 14:14:59;;;;;;;4.32;0.98;;;14.80;92.30;;;;;;7320983;32;20520;-58
2023/05/16 14:19:00;;;;;;;5.60;1.10;;;14.70;95.70;;;;;;7326020;32;20186;-58
2023/05/16 14:23:02;;;;;;;4.65;1.30;;;14.80;96.40;;;;;;7323615;32;20221;-58
2023/05/16 14:27:05;;;;;;;2.67;1.10;;;15.60;95.10;;;;;;7330324;32;20675;-59
2023/05/16 14:31:07;;;;;;;7.57;1.85;;;15.70;95.80;;;;;;7337878;32;20573;-57
2023/05/16 14:35:09;;;;;;;5.07;0.90;;;15.30;94.00;;;;;;7324054;32;20263;-58
2023/05/16 14:39:11;;;;;;;3.67;1.05;;;14.90;96.30;;;;;;7323546;32;20191;-58
2023/05/16 14:43:12;;;;;;;4.93;1.00;;;14.70;96.00;;;;;;7324658;32;20224;-57
2023/05/16 14:47:14;;;;;;;7.43;1.10;;;14.40;94.40;;;;;;7323459;32;20186;-57
2023/05/16 14:51:16;;;;;;;4.10;0.98;;;14.00;99.30;;;;;;7315242;32;20439;-57
2023/05/16 14:55:20;;;;;;;6.10;1.23;;;14.20;98.00;;;;;;7326969;32;20548;-58
2023/05/16 14:59:22;;;;;;;4.90;1.00;;;14.60;97.30;;;;;;7319700;32;20371;-58
2023/05/16 15:03:24;;;;;;;9.05;1.37;;;14.70;96.70;;;;;;7329432;32;20169;-58
2023/05/16 15:07:27;;;;;;;8.50;1.77;;;14.40;97.10;;;;;;7325470;32;20249;-58
2023/05/16 15:11:29;;;;;;;7.62;1.65;;;14.20;96.90;;;;;;7332302;32;20648;-57
2023/05/16 15:15:31;;;;;;;4.75;1.80;;;13.90;96.50;;;;;;7323970;32;21276;-58
2023/05/16 15:19:33;;;;;;;5.78;1.50;;;13.90;99.50;;;;;;7325278;32;20213;-58
2023/05/16 15:23:35;;;;;;;7.75;1.37;;;14.10;99.40;;;;;;7320323;32;20183;-57
2023/05/16 15:27:37;;;;;;;4.50;1.35;;;14.00;98.10;;;;;;7324545;32;20186;-59
2023/05/16 15:31:39;;;;;;;5.90;1.33;;;14.00;99.60;;;;;;7331594;32;20175;-59
2023/05/16 15:35:40;;;;;;;3.15;1.25;;;14.20;99.90;;;;;;7324592;32;20204;-58
2023/05/16 15:39:42;;;;;;;6.93;1.58;;;14.20;99.90;;;;;;7327103;32;20179;-57
2023/05/16 15:43:44;;;;;;;6.05;1.50;;;14.30;98.30;;;;;;7327051;32;20221;-58
2023/05/16 15:47:46;;;;;;;4.20;1.30;;;14.00;98.80;;;;;;7321752;32;20186;-57
2023/05/16 15:51:49;;;;;;;5.20;1.55;;;13.80;99.90;;;;;;7324261;32;20198;-58
2023/05/16 15:55:51;;;;;;;6.35;1.40;;;13.70;99.90;;;;;;7329542;32;20459;-58
2023/05/16 15:59:53;;;;;;;4.85;1.05;;;13.60;99.90;;;;;;7327985;32;20629;-58
2023/05/16 16:03:54;;;;;;;4.20;1.15;;;13.50;99.90;;;;;;7332251;32;20245;-58
2023/05/16 16:07:57;;;;;;;4.93;1.15;;;13.40;99.90;;;;;;7326756;32;20187;-57
2023/05/16 16:11:58;;;;;;;7.07;1.30;;;13.20;99.90;;;;;;7329918;32;21419;-57
2023/05/16 16:16:00;;;;;;;4.95;1.10;;;13.10;99.90;;;;;;7320121;32;20530;-57
2023/05/16 16:20:02;;;;;;;7.40;1.17;;;12.80;99.90;;;;;;7330512;32;20241;-58
2023/05/16 16:24:04;;;;;;;4.70;1.20;;;12.70;99.90;;;;;;7325681;32;20166;-57
2023/05/16 16:28:06;;;;;;;7.03;1.48;;;12.60;99.90;;;;;;7329928;32;20323;-57
2023/05/16 16:32:08;;;;;;;7.30;1.70;;;12.70;99.90;;;;;;7324288;32;20508;-57
2023/05/16 16:36:10;;;;;;;5.97;1.60;;;12.50;99.90;;;;;;7331083;32;20468;-57
2023/05/16 16:40:12;;;;;;;6.80;1.45;;;12.60;99.90;;;;;;7328980;32;20802;-57
2023/05/16 16:44:13;;;;;;;6.60;1.83;;;12.40;99.90;;;;;;7331053;32;20799;-57
2023/05/16 16:48:15;;;;;;;6.12;1.73;;;12.40;99.90;;;;;;7328910;32;20270;-57
2023/05/16 16:52:17;;;;;;;4.60;1.67;;;12.60;99.90;;;;;;7331361;32;20172;-57
2023/05/16 16:56:20;;;;;;;7.72;2.12;;;12.70;99.90;;;;;;7337281;32;20614;-57
2023/05/16 17:00:22;;;;;;;6.07;1.70;;;12.70;99.90;;;;;;7335619;32;20122;-58
2023/05/16 17:04:24;;;;;;;6.50;1.83;;;12.80;99.90;;;;;;7338946;32;20127;-58
2023/05/16 17:08:26;;;;;;;4.62;1.80;;;12.90;99.90;;;;;;7319909;32;22224;-58
2023/05/16 17:12:28;;;;;;;6.50;1.48;;;12.80;99.90;;;;;;7334356;32;20588;-58
2023/05/16 17:16:30;;;;;;;5.65;1.60;;;12.80;99.90;;;;;;7338796;32;20160;-58
2023/05/16 17:20:36;;;;;;;7.03;1.23;;;12.70;99.90;;;;;;7326938;32;20209;-57
2023/05/16 17:24:37;;;;;;;6.03;1.65;;;12.70;99.90;;;;;;7332943;32;20095;-57
2023/05/16 17:28:39;;;;;;;4.47;1.60;;;12.50;99.90;;;;;;7330288;32;20197;-58
2023/05/16 17:32:41;;;;;;;7.65;1.80;;;12.40;99.90;;;;;;7331925;32;20237;-56
2023/05/16 17:36:43;;;;;;;7.25;1.42;;;12.40;99.90;;;;;;7332536;32;20092;-57
2023/05/16 17:40:45;;;;;;;4.75;1.35;;;12.40;99.90;;;;;;7331118;32;20241;-58
2023/05/16 17:44:46;;;;;;;5.70;1.35;;;12.30;99.90;;;;;;7329000;32;20167;-58
2023/05/16 17:48:48;;;;;;;5.35;1.73;;;12.20;99.90;;;;;;7327263;32;20286;-65
2023/05/16 17:52:50;;;;;;;7.85;1.62;;;12.10;99.90;;;;;;7332060;32;20115;-61
2023/05/16 17:56:52;;;;;;;6.55;1.83;;;12.20;99.90;;;;;;7330679;32;20833;-58
2023/05/16 18:00:54;;;;;;;6.70;1.60;;;12.20;99.90;;;;;;7330873;32;20280;-55
2023/05/16 18:04:56;;;;;;;4.43;1.50;;;12.30;99.90;;;;;;7337711;32;20099;-57
2023/05/16 18:08:57;;;;;;;8.05;1.80;;;12.10;99.90;;;;;;7342270;32;20195;-58
2023/05/16 18:13:00;;;;;;;6.25;2.05;;;12.00;99.90;;;;;;7328896;32;20104;-57
2023/05/16 18:17:02;;;;;;;8.18;2.12;;;12.00;99.90;;;;;;7328146;32;20115;-58
2023/05/16 18:21:04;;;;;;;7.22;2.22;;;12.00;99.90;;;;;;7336988;32;20111;-57
2023/05/16 18:25:08;;;;;;;8.00;2.47;;;12.00;99.90;;;;;;7334228;32;20870;-58
2023/05/16 18:29:10;;;;;;;8.50;2.28;;;11.80;99.90;;;;;;7338963;32;20577;-58
2023/05/16 18:33:12;;;;;;;7.10;2.17;;;11.90;99.90;;;;;;7335995;32;20113;-58
2023/05/16 18:37:15;;;;;;;8.13;1.87;;;11.80;99.90;;;;;;7334891;32;20592;-57
2023/05/16 18:41:17;;;;;;;5.43;1.83;;;11.80;99.90;;;;;;7312227;32;20476;-57
2023/05/16 18:45:19;;;;;;;6.37;1.90;;;11.70;99.90;;;;;;7324514;32;20238;-57
2023/05/16 18:49:21;;;;;;;6.40;2.20;;;11.70;99.90;;;;;;7325558;32;20198;-57
2023/05/16 18:53:23;;;;;;;10.43;1.87;;;11.70;99.90;;;;;;7332717;32;20386;-58
2023/05/16 18:57:25;;;;;;;7.20;1.77;;;11.70;99.90;;;;;;7325465;32;20258;-58
2023/05/16 19:01:27;;;;;;;6.10;1.92;;;11.60;99.90;;;;;;7327251;32;20183;-57
2023/05/16 19:05:29;;;;;;;4.78;1.83;;;11.50;99.90;;;;;;7317525;32;20237;-57
2023/05/16 19:09:31;;;;;;;6.80;2.55;;;11.50;99.90;;;;;;7325390;32;20178;-58
2023/05/16 19:13:33;;;;;;;6.55;1.77;;;11.50;99.90;;;;;;7330731;32;20232;-58
2023/05/16 19:17:35;;;;;;;6.40;1.83;;;11.50;99.90;;;;;;7323219;32;20201;-57
2023/05/16 19:21:37;;;;;;;6.00;1.70;;;11.50;99.90;;;;;;7323514;32;20247;-57
2023/05/16 19:25:45;;;;;;;6.47;2.35;;;11.40;99.90;;;;;;7327452;32;21479;-58
2023/05/16 19:29:48;;;;;;;6.68;1.75;;;11.30;99.90;;;;;;7320499;32;20146;-57
2023/05/16 19:33:50;;;;;;;5.07;1.40;;;11.40;99.90;;;;;;7328757;32;20183;-57
2023/05/16 19:37:51;;;;;;;7.10;1.33;;;11.20;99.90;;;;;;7330973;32;20272;-57
2023/05/16 19:41:53;;;;;;;5.50;1.40;;;11.20;99.90;;;;;;7336605;32;20587;-56
2023/05/16 19:45:57;;;;;;;9.07;1.77;;;11.20;99.90;;;;;;7322588;32;20307;-57
2023/05/16 19:49:59;;;;;;;9.25;1.70;;;11.00;99.90;;;;;;7325864;32;20281;-56
2023/05/16 19:54:01;;;;;;;6.80;1.50;;;11.10;99.90;;;;;;7334547;32;20260;-57
2023/05/16 19:58:03;;;;;;;8.30;1.25;;;11.10;99.90;;;;;;7336145;32;20233;-57
2023/05/16 20:02:05;;;;;;;4.80;1.50;;;11.00;99.90;;;;;;7325564;32;21179;-56
2023/05/16 20:06:07;;;;;;;5.32;1.25;;;10.90;99.90;;;;;;7332434;32;20233;-57
2023/05/16 20:10:09;;;;;;;6.15;1.83;;;10.90;99.90;;;;;;7326151;32;20221;-57
2023/05/16 20:14:11;;;;;;;6.65;1.40;;;10.80;99.90;;;;;;7325452;32;20205;-55
2023/05/16 20:18:14;;;;;;;3.75;1.12;;;10.80;99.90;;;;;;7324291;32;20212;-57
2023/05/16 20:22:16;;;;;;;6.93;1.23;;;10.80;99.90;;;;;;7332046;32;20222;-55
2023/05/16 20:26:17;;;;;;;7.85;2.50;;;10.70;99.90;;;;;;7311951;32;20518;-55
2023/05/16 20:30:19;;;;;;;7.07;1.80;;;10.50;99.90;;;;;;7323076;32;20179;-57
2023/05/16 20:34:21;;;;;;;3.90;1.10;;;10.50;99.90;;;;;;7316434;32;20135;-56
2023/05/16 20:38:23;;;;;;;6.68;1.48;;;10.50;99.90;;;;;;7332960;32;20190;-56
2023/05/16 20:42:24;;;;;;;3.60;1.30;;;10.50;99.90;;;;;;7322452;32;20103;-58
2023/05/16 20:46:26;;;;;;;6.62;2.05;;;10.30;99.90;;;;;;7330950;32;20195;-57
2023/05/16 20:50:29;;;;;;;6.40;1.85;;;10.20;99.90;;;;;;7337851;32;20108;-57
2023/05/16 20:54:31;;;;;;;7.00;2.42;;;10.10;99.90;;;;;;7337727;32;20194;-57
2023/05/16 20:58:34;;;;;;;7.20;2.08;;;10.00;99.90;;;;;;7328573;32;20233;-56
2023/05/16 21:02:35;;;;;;;6.18;2.75;;;10.10;99.90;;;;;;7328224;32;20201;-58